Time;durP1;ratioP1;P1;durP2;ratioP2;P2;SDS_P1;SDS_P2;PMS_P1;PMS_P2;Temp;Humidity;BMP_temperature;BMP_pressure;BME280_temperature;BME280_humidity;BME280_pressure;Samples;Min_cycle;Max_cycle;Signal;HPM_P1;HPM_P2
2022/06/30 00:00:26;;;;;;;1.63;1.10;;;12.60;60.40;;;;;;4898507;29;20243;-49
2022/06/30 00:02:57;;;;;;;1.45;1.20;;;12.60;60.40;;;;;;4898840;29;20303;-49
2022/06/30 00:05:30;;;;;;;1.67;1.20;;;12.60;60.50;;;;;;4898067;29;20252;-51
2022/06/30 00:08:01;;;;;;;1.15;0.98;;;12.60;60.50;;;;;;4903981;29;20259;-54
2022/06/30 00:10:33;;;;;;;2.75;1.20;;;12.60;60.50;;;;;;4917763;29;20208;-51
2022/06/30 00:13:04;;;;;;;2.60;1.10;;;12.70;60.50;;;;;;4917603;29;20657;-51
2022/06/30 00:15:44;;;;;;;1.50;1.20;;;12.70;60.40;;;;;;4917480;29;20224;-52
2022/06/30 00:18:15;;;;;;;1.30;0.93;;;12.70;60.50;;;;;;4893608;29;20256;-52
2022/06/30 00:20:48;;;;;;;2.40;1.55;;;12.70;60.50;;;;;;4898103;29;20676;-49
2022/06/30 00:23:19;;;;;;;1.60;1.15;;;12.70;60.50;;;;;;4902691;29;20216;-54
2022/06/30 00:25:49;;;;;;;2.72;1.20;;;12.80;60.50;;;;;;4915937;29;20323;-49
2022/06/30 00:28:20;;;;;;;1.73;1.00;;;12.80;60.40;;;;;;4900457;29;20236;-50
2022/06/30 00:30:52;;;;;;;1.80;1.23;;;12.80;60.30;;;;;;4897314;29;20712;-50
2022/06/30 00:33:23;;;;;;;2.60;0.90;;;12.80;60.30;;;;;;4898139;29;20283;-52
2022/06/30 00:35:56;;;;;;;2.72;1.40;;;12.90;60.30;;;;;;4907478;29;20635;-50
2022/06/30 00:38:27;;;;;;;1.45;1.00;;;12.90;60.40;;;;;;4899374;29;20284;-49
2022/06/30 00:40:58;;;;;;;1.35;1.00;;;12.90;60.40;;;;;;4897626;29;20256;-50
2022/06/30 00:43:29;;;;;;;1.80;1.33;;;13.00;60.50;;;;;;4897814;29;20785;-51
2022/06/30 00:46:00;;;;;;;1.65;1.30;;;13.00;60.50;;;;;;4897949;29;20752;-52
2022/06/30 00:48:31;;;;;;;1.48;1.13;;;13.00;60.50;;;;;;4897586;29;20210;-52
2022/06/30 00:51:06;;;;;;;1.40;0.95;;;13.00;60.50;;;;;;4898412;29;20201;-55
2022/06/30 00:53:39;;;;;;;1.30;1.20;;;13.10;60.50;;;;;;4896880;29;20810;-51
2022/06/30 00:56:11;;;;;;;1.58;1.20;;;13.10;60.50;;;;;;4897203;29;20708;-50
2022/06/30 00:58:43;;;;;;;1.13;1.02;;;13.10;60.50;;;;;;4896953;29;20287;-54
2022/06/30 01:01:15;;;;;;;1.98;1.33;;;13.10;60.50;;;;;;4899618;29;20292;-52
2022/06/30 01:03:47;;;;;;;1.48;1.23;;;13.10;60.50;;;;;;4896971;29;20296;-51
2022/06/30 01:06:36;;;;;;;2.17;1.40;;;13.10;60.60;;;;;;4897134;29;20237;-55
2022/06/30 01:14:08;;;;;;;1.55;1.23;;;13.30;63.90;;;;;;4920147;23;20280;-43
2022/06/30 01:16:41;;;;;;;1.33;1.20;;;13.40;63.80;;;;;;4911890;29;20283;-43
2022/06/30 01:19:13;;;;;;;1.50;1.17;;;13.50;63.40;;;;;;4924617;29;20296;-43
2022/06/30 01:22:01;;;;;;;2.60;1.20;;;13.60;63.00;;;;;;4899265;29;20307;-43
2022/06/30 01:24:32;;;;;;;2.58;1.25;;;13.60;62.60;;;;;;4897264;29;20288;-43
2022/06/30 01:27:03;;;;;;;1.63;1.10;;;13.70;62.30;;;;;;4896103;29;20307;-44
2022/06/30 01:29:35;;;;;;;2.17;1.35;;;13.80;62.20;;;;;;4896361;29;20759;-43
2022/06/30 01:32:06;;;;;;;1.27;1.08;;;13.80;62.00;;;;;;4896071;29;20193;-43
2022/06/30 01:34:37;;;;;;;1.23;1.13;;;13.80;61.90;;;;;;4895698;29;20292;-44
2022/06/30 01:37:10;;;;;;;1.02;0.93;;;13.90;61.90;;;;;;4899005;29;20279;-43
2022/06/30 01:39:41;;;;;;;1.50;1.23;;;13.90;61.80;;;;;;4909534;29;20248;-43
2022/06/30 01:42:12;;;;;;;1.13;1.00;;;13.90;61.60;;;;;;4896197;29;20245;-44
2022/06/30 01:44:43;;;;;;;1.17;0.93;;;13.90;61.50;;;;;;4896515;29;20193;-44
2022/06/30 01:47:14;;;;;;;1.83;1.10;;;13.90;61.40;;;;;;4896954;29;20239;-45
2022/06/30 01:49:45;;;;;;;2.13;1.30;;;14.00;61.50;;;;;;4896109;29;20287;-45
2022/06/30 01:52:17;;;;;;;1.30;1.20;;;14.00;61.50;;;;;;4896447;29;20720;-48
2022/06/30 01:54:48;;;;;;;1.50;1.40;;;14.00;61.30;;;;;;4896349;29;20232;-45
2022/06/30 01:57:19;;;;;;;1.63;1.30;;;14.00;61.30;;;;;;4897003;29;20236;-43
2022/06/30 01:59:50;;;;;;;1.98;1.33;;;14.00;61.40;;;;;;4895552;29;20308;-44
2022/06/30 02:02:21;;;;;;;2.90;1.60;;;14.00;61.30;;;;;;4896069;29;20272;-44
2022/06/30 02:04:53;;;;;;;1.38;1.10;;;14.00;61.20;;;;;;4896401;29;20292;-44
2022/06/30 02:07:26;;;;;;;2.10;1.73;;;14.00;61.20;;;;;;4896308;29;20655;-44
2022/06/30 02:09:57;;;;;;;1.65;1.35;;;14.00;61.10;;;;;;4904594;23;20299;-43
2022/06/30 02:15:16;;;;;;;1.48;1.30;;;14.10;61.10;;;;;;4915458;29;20335;-44
2022/06/30 02:17:47;;;;;;;1.40;1.30;;;14.10;61.10;;;;;;4914821;29;20621;-46
2022/06/30 02:20:21;;;;;;;1.83;1.50;;;14.10;61.10;;;;;;4914732;29;20260;-44
2022/06/30 02:22:55;;;;;;;2.17;1.23;;;14.10;61.20;;;;;;4914941;29;20196;-45
2022/06/30 02:25:27;;;;;;;1.50;1.40;;;14.10;61.20;;;;;;4903306;29;20239;-46
2022/06/30 02:27:58;;;;;;;1.63;1.52;;;14.20;61.20;;;;;;4896535;29;20268;-45
2022/06/30 02:30:29;;;;;;;1.70;1.40;;;14.10;61.10;;;;;;4896338;29;20312;-43
2022/06/30 02:33:00;;;;;;;1.45;1.35;;;14.20;61.20;;;;;;4885566;29;20287;-44
2022/06/30 02:35:31;;;;;;;1.80;1.50;;;14.20;61.20;;;;;;4877530;29;20241;-45
2022/06/30 02:38:11;;;;;;;1.63;1.52;;;14.20;61.20;;;;;;4894383;29;20284;-46
2022/06/30 02:40:42;;;;;;;1.52;1.40;;;14.20;61.20;;;;;;4895808;29;20227;-44
2022/06/30 02:43:13;;;;;;;2.20;1.48;;;14.20;61.30;;;;;;4895825;29;20197;-43
2022/06/30 02:45:44;;;;;;;1.55;1.45;;;14.20;61.20;;;;;;4912761;29;20295;-46
2022/06/30 02:48:16;;;;;;;2.10;1.45;;;14.20;61.20;;;;;;4900336;29;20233;-46
2022/06/30 02:50:47;;;;;;;2.05;1.42;;;14.20;61.10;;;;;;4887921;29;20697;-45
2022/06/30 02:53:20;;;;;;;2.40;1.48;;;14.30;61.20;;;;;;4899300;29;20204;-45
2022/06/30 02:55:51;;;;;;;1.40;1.27;;;14.30;61.10;;;;;;4899552;29;20284;-45
2022/06/30 02:58:21;;;;;;;2.22;1.50;;;14.30;61.00;;;;;;4898037;29;20285;-45
2022/06/30 03:00:52;;;;;;;1.85;1.40;;;14.30;61.00;;;;;;4899101;29;20256;-44
2022/06/30 03:03:23;;;;;;;1.75;1.60;;;14.30;61.00;;;;;;4899718;29;20283;-45
2022/06/30 03:05:54;;;;;;;2.55;1.30;;;14.30;61.00;;;;;;4899507;29;20200;-43
2022/06/30 03:08:27;;;;;;;2.28;1.70;;;14.30;61.10;;;;;;4898074;29;20225;-44
2022/06/30 03:10:58;;;;;;;2.42;1.60;;;14.40;61.10;;;;;;4881160;29;20265;-46
2022/06/30 03:13:28;;;;;;;2.00;1.35;;;14.40;61.10;;;;;;4899069;29;20280;-45
2022/06/30 03:16:01;;;;;;;1.30;1.20;;;14.30;61.00;;;;;;4899945;29;20288;-45
2022/06/30 03:18:32;;;;;;;1.55;1.40;;;14.40;61.00;;;;;;4899248;29;20217;-44
2022/06/30 03:21:03;;;;;;;2.33;1.55;;;14.40;61.00;;;;;;4899040;29;20280;-43
2022/06/30 03:23:36;;;;;;;2.13;1.48;;;14.40;60.90;;;;;;4898901;29;20239;-45
2022/06/30 03:26:07;;;;;;;3.22;1.52;;;14.40;60.90;;;;;;4898730;29;20193;-44
2022/06/30 03:28:38;;;;;;;1.80;1.50;;;14.40;60.90;;;;;;4899104;29;20415;-44
2022/06/30 03:31:09;;;;;;;2.58;1.42;;;14.40;60.90;;;;;;4898850;29;20221;-44
2022/06/30 03:33:40;;;;;;;1.70;1.52;;;14.50;60.90;;;;;;4898717;29;20736;-45
2022/06/30 03:36:11;;;;;;;1.75;1.35;;;14.50;60.70;;;;;;4898287;29;20295;-46
2022/06/30 03:38:43;;;;;;;1.58;1.30;;;14.50;60.60;;;;;;4918026;29;20254;-45
2022/06/30 03:41:14;;;;;;;1.60;1.30;;;14.50;60.60;;;;;;4917712;29;20307;-45
2022/06/30 03:43:45;;;;;;;1.58;1.38;;;14.50;60.50;;;;;;4899385;29;20301;-46
2022/06/30 03:46:16;;;;;;;1.52;1.35;;;14.50;60.50;;;;;;4898785;29;20280;-44
2022/06/30 03:48:47;;;;;;;1.85;1.50;;;14.50;60.50;;;;;;4880239;29;20216;-44
2022/06/30 03:51:18;;;;;;;1.55;1.13;;;14.60;60.60;;;;;;4879559;29;20304;-43
2022/06/30 03:53:53;;;;;;;2.15;1.83;;;14.60;60.50;;;;;;4898823;29;20292;-45
2022/06/30 03:56:24;;;;;;;1.70;1.52;;;14.60;60.50;;;;;;4878769;29;20223;-45
2022/06/30 03:58:55;;;;;;;1.50;1.20;;;14.60;60.40;;;;;;4884274;29;20243;-44
2022/06/30 04:01:26;;;;;;;1.38;1.13;;;14.60;60.30;;;;;;4897958;29;20225;-45
2022/06/30 04:03:57;;;;;;;1.50;1.23;;;14.60;60.30;;;;;;4897808;29;20287;-46
2022/06/30 04:06:27;;;;;;;1.63;1.27;;;14.60;60.20;;;;;;4897901;29;20691;-44
2022/06/30 04:09:00;;;;;;;1.67;1.17;;;14.60;60.00;;;;;;4884098;29;20688;-45
2022/06/30 04:11:31;;;;;;;1.30;1.20;;;14.60;60.00;;;;;;4898092;29;20315;-45
2022/06/30 04:14:02;;;;;;;1.45;1.20;;;14.70;59.90;;;;;;4879772;29;20198;-44
2022/06/30 04:16:33;;;;;;;1.92;1.50;;;14.70;59.70;;;;;;4886826;29;20288;-45
2022/06/30 04:19:04;;;;;;;2.33;1.20;;;14.70;59.70;;;;;;4879200;29;20244;-45
2022/06/30 04:21:34;;;;;;;1.35;0.90;;;14.70;59.60;;;;;;4879620;29;20253;-45
2022/06/30 04:24:08;;;;;;;1.20;1.10;;;14.70;59.50;;;;;;4879329;29;20288;-48
2022/06/30 04:26:40;;;;;;;1.67;1.10;;;14.70;59.50;;;;;;4885333;29;20197;-45
2022/06/30 04:29:11;;;;;;;1.65;1.20;;;14.70;59.40;;;;;;4898168;29;20740;-44
2022/06/30 04:34:28;;;;;;;1.42;1.02;;;14.70;59.20;;;;;;4868263;29;20197;-47
2022/06/30 04:36:59;;;;;;;1.00;0.90;;;14.80;59.20;;;;;;4897594;29;20244;-45
2022/06/30 04:39:32;;;;;;;0.77;0.70;;;14.70;59.10;;;;;;4898120;29;20233;-45
2022/06/30 04:42:01;;;;;;;1.27;0.90;;;14.70;59.10;;;;;;4897226;29;20284;-45
2022/06/30 04:44:32;;;;;;;2.15;0.90;;;14.80;59.20;;;;;;4897534;29;20236;-45
2022/06/30 04:47:03;;;;;;;0.80;0.80;;;14.80;59.10;;;;;;4897768;29;20227;-45
2022/06/30 04:49:34;;;;;;;0.93;0.90;;;14.80;59.00;;;;;;4897597;29;20756;-47
2022/06/30 04:52:04;;;;;;;0.80;0.80;;;14.80;59.00;;;;;;4897696;29;20280;-50
2022/06/30 04:54:37;;;;;;;0.63;0.63;;;14.80;59.10;;;;;;4900474;29;20260;-47
2022/06/30 04:57:09;;;;;;;1.00;0.90;;;14.80;59.00;;;;;;4881018;29;20244;-46
2022/06/30 04:59:40;;;;;;;2.35;0.73;;;14.80;58.90;;;;;;4897211;29;20295;-46
2022/06/30 05:02:10;;;;;;;1.55;0.90;;;14.80;58.90;;;;;;4898125;29;20242;-45
2022/06/30 05:04:42;;;;;;;1.20;1.02;;;14.80;58.90;;;;;;4897593;29;20249;-47
2022/06/30 05:07:13;;;;;;;1.38;0.90;;;14.80;58.80;;;;;;4896721;29;20255;-45
2022/06/30 06:12:02;;;;;;;0.60;0.60;;;14.90;57.60;;;;;;5050793;23;20232;-55
2022/06/30 06:14:33;;;;;;;0.70;0.60;;;14.90;57.60;;;;;;4916469;29;20299;-56
2022/06/30 06:17:04;;;;;;;0.73;0.55;;;14.90;57.60;;;;;;4914654;29;20291;-56
2022/06/30 06:19:34;;;;;;;0.50;0.50;;;14.90;57.90;;;;;;4914814;29;20622;-55
2022/06/30 06:22:05;;;;;;;1.25;0.60;;;15.00;57.80;;;;;;4914876;29;20287;-56
2022/06/30 06:24:36;;;;;;;0.50;0.50;;;14.90;57.60;;;;;;4914576;29;20284;-58
2022/06/30 06:27:09;;;;;;;0.80;0.50;;;15.00;57.60;;;;;;4915293;29;20752;-59
2022/06/30 06:29:39;;;;;;;0.75;0.70;;;14.90;57.50;;;;;;4914561;29;20286;-57
2022/06/30 06:32:10;;;;;;;0.60;0.60;;;14.90;57.60;;;;;;4915455;29;20781;-58
2022/06/30 06:34:41;;;;;;;0.52;0.52;;;14.90;57.60;;;;;;4914455;29;20192;-59
2022/06/30 06:37:12;;;;;;;2.17;0.60;;;14.90;57.60;;;;;;4914837;29;20288;-59
2022/06/30 06:39:43;;;;;;;0.90;0.57;;;15.00;57.60;;;;;;4914703;29;20279;-59
2022/06/30 06:42:15;;;;;;;1.63;0.70;;;15.00;57.70;;;;;;4915383;29;20280;-59
2022/06/30 06:44:47;;;;;;;0.60;0.50;;;15.00;57.60;;;;;;4914717;29;20243;-59
2022/06/30 06:47:18;;;;;;;1.30;0.43;;;15.00;57.60;;;;;;4915139;29;20211;-58
2022/06/30 06:49:49;;;;;;;1.50;0.70;;;15.00;57.60;;;;;;4915054;29;20308;-58
2022/06/30 06:52:20;;;;;;;0.50;0.40;;;15.00;57.50;;;;;;4914856;29;20282;-58
2022/06/30 06:54:51;;;;;;;0.95;0.70;;;15.00;57.60;;;;;;4915043;29;20629;-57
2022/06/30 06:57:24;;;;;;;0.40;0.40;;;15.00;57.60;;;;;;4914750;29;20291;-56
2022/06/30 06:59:55;;;;;;;0.57;0.50;;;15.00;57.60;;;;;;4914841;29;20251;-58
2022/06/30 07:02:26;;;;;;;0.60;0.60;;;14.90;57.50;;;;;;4914260;29;20196;-59
2022/06/30 07:04:57;;;;;;;0.50;0.50;;;15.00;57.60;;;;;;4914990;29;20266;-54
2022/06/30 07:07:28;;;;;;;0.70;0.63;;;14.90;57.60;;;;;;4913792;29;20330;-58
2022/06/30 07:09:59;;;;;;;0.60;0.60;;;14.90;57.60;;;;;;4915222;29;20350;-58
2022/06/30 07:12:32;;;;;;;0.75;0.60;;;14.90;57.70;;;;;;4915224;29;20839;-56
2022/06/30 07:15:03;;;;;;;0.70;0.50;;;14.90;57.70;;;;;;4932485;29;20207;-57
2022/06/30 07:17:38;;;;;;;0.65;0.60;;;14.90;57.70;;;;;;4920548;29;20783;-59
2022/06/30 07:20:09;;;;;;;0.88;0.50;;;14.90;57.70;;;;;;4913991;29;20223;-59
2022/06/30 07:22:40;;;;;;;0.50;0.50;;;14.90;57.70;;;;;;4914249;29;20196;-59
2022/06/30 07:25:12;;;;;;;0.90;0.52;;;14.90;57.70;;;;;;4913582;29;20235;-59
2022/06/30 07:27:45;;;;;;;0.55;0.50;;;14.90;57.70;;;;;;4914837;29;20639;-56
2022/06/30 07:30:16;;;;;;;0.50;0.50;;;14.90;57.70;;;;;;4916154;29;20263;-58
2022/06/30 07:32:47;;;;;;;0.50;0.45;;;14.90;57.80;;;;;;4918501;29;20236;-59
2022/06/30 07:35:17;;;;;;;0.50;0.50;;;14.90;57.70;;;;;;4918245;29;20228;-59
2022/06/30 07:37:48;;;;;;;0.52;0.50;;;15.00;57.80;;;;;;4918211;29;20251;-58
2022/06/30 07:40:19;;;;;;;0.60;0.60;;;15.00;57.80;;;;;;4918191;29;20310;-58
2022/06/30 07:42:52;;;;;;;0.70;0.55;;;14.90;57.80;;;;;;4918780;29;20748;-58
2022/06/30 07:45:28;;;;;;;0.50;0.50;;;14.90;57.80;;;;;;4918477;29;20251;-56
2022/06/30 07:47:59;;;;;;;0.50;0.50;;;14.90;57.90;;;;;;4918805;29;20263;-58
2022/06/30 07:50:31;;;;;;;0.68;0.40;;;14.90;57.90;;;;;;4918630;29;20283;-58
2022/06/30 07:53:02;;;;;;;1.08;0.70;;;14.90;58.00;;;;;;4918477;29;20670;-57
2022/06/30 07:55:33;;;;;;;0.45;0.40;;;14.90;58.00;;;;;;4918047;29;20295;-58
2022/06/30 07:58:05;;;;;;;1.55;0.52;;;14.90;58.00;;;;;;4918320;29;20287;-57
2022/06/30 08:00:36;;;;;;;0.80;0.68;;;14.90;58.00;;;;;;4918339;29;20220;-58
2022/06/30 08:03:07;;;;;;;0.47;0.47;;;14.90;58.00;;;;;;4918320;29;20200;-58
2022/06/30 08:05:38;;;;;;;0.65;0.50;;;14.90;58.00;;;;;;4917607;29;20201;-54
2022/06/30 08:08:09;;;;;;;0.90;0.70;;;14.90;58.00;;;;;;4917406;29;20315;-58
2022/06/30 08:10:40;;;;;;;0.95;0.60;;;14.90;58.00;;;;;;4917362;29;20347;-60
2022/06/30 08:13:13;;;;;;;0.52;0.50;;;14.90;58.00;;;;;;4917988;29;20236;-55
2022/06/30 08:15:44;;;;;;;0.43;0.40;;;14.90;58.00;;;;;;4917171;29;20196;-57
2022/06/30 08:18:15;;;;;;;0.60;0.60;;;14.90;58.00;;;;;;4918174;29;20235;-57
2022/06/30 08:20:46;;;;;;;0.50;0.50;;;14.90;58.00;;;;;;4917424;29;20316;-58
2022/06/30 08:23:16;;;;;;;0.63;0.50;;;14.90;58.00;;;;;;4917352;29;20239;-58
2022/06/30 08:25:47;;;;;;;0.50;0.50;;;15.00;58.10;;;;;;4917296;29;20291;-57
2022/06/30 08:28:20;;;;;;;0.60;0.60;;;14.90;58.00;;;;;;4917461;29;20323;-57
2022/06/30 08:30:51;;;;;;;0.75;0.45;;;14.90;58.10;;;;;;4917541;29;20251;-54
2022/06/30 08:33:22;;;;;;;0.55;0.50;;;14.90;58.20;;;;;;4917727;29;20247;-58
2022/06/30 08:35:53;;;;;;;0.55;0.40;;;14.90;58.20;;;;;;4917723;29;20707;-57
2022/06/30 08:38:25;;;;;;;1.52;0.60;;;14.90;58.20;;;;;;4917662;29;20291;-57
2022/06/30 08:43:45;;;;;;;0.60;0.60;;;14.90;58.20;;;;;;4916866;29;20338;-57
2022/06/30 08:46:18;;;;;;;2.83;0.70;;;14.90;58.40;;;;;;4917114;29;20239;-58
2022/06/30 08:48:48;;;;;;;0.95;0.50;;;14.90;58.70;;;;;;4917378;29;20420;-58
2022/06/30 08:51:21;;;;;;;3.20;0.55;;;14.90;58.90;;;;;;4916914;29;20299;-58
2022/06/30 08:53:56;;;;;;;1.65;0.60;;;14.90;58.80;;;;;;4916894;29;20204;-58
2022/06/30 08:56:30;;;;;;;0.43;0.43;;;15.00;58.90;;;;;;4916152;29;20195;-54
2022/06/30 08:59:04;;;;;;;0.68;0.68;;;15.00;58.80;;;;;;4917382;29;20200;-58
2022/06/30 09:01:35;;;;;;;0.70;0.70;;;15.00;58.80;;;;;;4917057;29;20283;-59
2022/06/30 09:04:07;;;;;;;1.63;0.80;;;15.00;58.80;;;;;;4916916;29;20282;-58
2022/06/30 09:06:38;;;;;;;1.13;0.70;;;15.00;58.80;;;;;;4917134;29;20267;-57
2022/06/30 09:09:09;;;;;;;1.13;0.80;;;15.00;58.90;;;;;;4916541;29;20327;-57
2022/06/30 09:11:53;;;;;;;1.55;0.90;;;15.00;58.90;;;;;;4916579;29;20266;-57
2022/06/30 09:14:43;;;;;;;1.35;0.75;;;15.00;58.90;;;;;;4917015;29;20283;-58
2022/06/30 09:17:17;;;;;;;1.38;1.27;;;15.00;58.90;;;;;;4913997;29;20204;-58
2022/06/30 09:20:00;;;;;;;1.88;0.93;;;15.00;58.90;;;;;;4916200;29;20315;-58
2022/06/30 09:22:34;;;;;;;1.50;0.98;;;15.00;58.90;;;;;;4915740;29;20748;-55
2022/06/30 09:25:06;;;;;;;2.78;1.02;;;15.00;58.90;;;;;;4914857;29;20664;-58
2022/06/30 09:27:38;;;;;;;1.63;1.05;;;15.00;58.90;;;;;;4916092;29;20857;-57
2022/06/30 09:30:13;;;;;;;1.73;1.10;;;15.00;58.90;;;;;;4915784;29;20224;-58
2022/06/30 09:32:57;;;;;;;1.45;0.90;;;15.00;58.90;;;;;;4915792;29;20243;-57
2022/06/30 09:35:29;;;;;;;1.92;1.10;;;15.00;58.90;;;;;;4903086;29;20188;-59
2022/06/30 09:38:06;;;;;;;2.33;1.45;;;15.00;58.90;;;;;;4915489;29;20204;-58
2022/06/30 09:41:00;;;;;;;2.30;1.15;;;15.00;58.90;;;;;;4915633;29;20711;-59
2022/06/30 09:43:35;;;;;;;3.08;1.30;;;15.00;58.90;;;;;;4915600;29;20210;-57
2022/06/30 09:46:08;;;;;;;2.13;1.13;;;15.00;58.80;;;;;;4916059;29;20275;-55
2022/06/30 09:48:43;;;;;;;2.80;1.30;;;15.00;58.80;;;;;;4915658;29;20234;-59
2022/06/30 09:51:14;;;;;;;2.75;1.35;;;15.00;58.80;;;;;;4915570;29;20215;-59
2022/06/30 09:53:46;;;;;;;2.90;1.42;;;15.00;58.80;;;;;;4915356;29;20283;-58
2022/06/30 09:56:18;;;;;;;2.38;1.50;;;15.00;58.80;;;;;;4915646;29;20627;-59
2022/06/30 09:58:49;;;;;;;1.65;1.17;;;15.00;58.90;;;;;;4917120;29;20204;-58
2022/06/30 10:01:22;;;;;;;2.67;1.67;;;15.00;58.90;;;;;;4915983;29;20216;-58
2022/06/30 10:04:02;;;;;;;2.15;1.27;;;15.00;58.90;;;;;;4914750;29;20307;-55
2022/06/30 10:06:32;;;;;;;1.73;1.20;;;15.00;58.90;;;;;;4915420;29;20703;-60
2022/06/30 10:09:03;;;;;;;4.13;1.70;;;15.00;58.90;;;;;;4914959;29;20262;-56
2022/06/30 10:11:34;;;;;;;2.78;1.27;;;14.90;58.90;;;;;;4915861;29;20260;-54
2022/06/30 10:14:05;;;;;;;1.95;1.23;;;14.90;58.90;;;;;;4915031;29;20287;-55
2022/06/30 10:16:40;;;;;;;2.60;1.40;;;15.00;58.90;;;;;;4914930;29;20287;-49
2022/06/30 10:19:13;;;;;;;3.33;1.33;;;14.90;58.90;;;;;;4915342;29;20251;-56
2022/06/30 10:21:44;;;;;;;2.78;1.40;;;15.00;58.90;;;;;;4914044;29;20310;-54
2022/06/30 10:24:19;;;;;;;3.22;1.30;;;14.90;58.90;;;;;;4896731;29;20292;-55
2022/06/30 10:29:37;;;;;;;2.47;1.27;;;15.00;58.90;;;;;;4915138;29;20302;-53
2022/06/30 10:32:19;;;;;;;2.53;1.60;;;15.00;58.90;;;;;;4915203;29;20243;-58
2022/06/30 10:35:02;;;;;;;2.38;1.55;;;15.00;58.90;;;;;;4914542;29;20214;-59
2022/06/30 10:37:38;;;;;;;2.58;1.50;;;15.00;58.80;;;;;;4914391;29;20299;-54
2022/06/30 10:40:27;;;;;;;3.70;1.70;;;14.90;58.80;;;;;;4915197;29;20262;-59
2022/06/30 10:43:00;;;;;;;2.47;1.70;;;14.90;58.80;;;;;;4895876;29;20291;-59
2022/06/30 10:45:54;;;;;;;2.67;1.58;;;14.90;58.80;;;;;;4899400;29;20331;-60
2022/06/30 10:48:29;;;;;;;2.10;1.40;;;14.90;58.90;;;;;;4894923;29;20231;-60
2022/06/30 10:51:00;;;;;;;1.77;1.40;;;14.90;58.90;;;;;;4902145;29;20246;-60
2022/06/30 10:53:53;;;;;;;2.67;1.60;;;14.90;58.80;;;;;;4914437;29;20283;-58
2022/06/30 10:56:25;;;;;;;4.57;1.95;;;14.90;58.90;;;;;;4915200;29;20660;-59
2022/06/30 10:59:10;;;;;;;2.28;1.58;;;14.90;58.90;;;;;;4914902;29;20562;-59
2022/06/30 11:01:41;;;;;;;3.88;1.60;;;14.90;58.90;;;;;;4914375;29;20222;-60
2022/06/30 11:04:16;;;;;;;3.40;1.60;;;14.90;58.90;;;;;;4914612;29;20204;-59
2022/06/30 11:07:10;;;;;;;4.50;1.75;;;14.80;58.90;;;;;;4916971;29;20209;-58
2022/06/30 11:13:09;;;;;;;3.35;1.70;;;14.90;59.00;;;;;;4952802;29;20218;-46
2022/06/30 11:16:02;;;;;;;4.20;1.77;;;14.90;58.90;;;;;;4957885;28;20195;-46
2022/06/30 11:18:36;;;;;;;4.85;1.92;;;14.90;58.90;;;;;;4937489;29;20294;-46
2022/06/30 11:21:09;;;;;;;4.57;2.47;;;14.90;58.90;;;;;;4924855;29;20314;-47
2022/06/30 11:23:42;;;;;;;6.00;2.50;;;14.90;59.00;;;;;;4918374;29;20307;-47
2022/06/30 11:29:02;;;;;;;4.55;2.10;;;14.80;59.00;;;;;;4917258;29;20695;-47
2022/06/30 11:31:34;;;;;;;4.22;2.03;;;14.80;59.00;;;;;;4917574;29;20263;-47
2022/06/30 11:34:08;;;;;;;3.78;2.42;;;14.80;59.00;;;;;;4917267;29;20288;-47
2022/06/30 11:36:42;;;;;;;3.80;1.90;;;14.80;59.00;;;;;;4929314;29;20203;-46
2022/06/30 11:39:14;;;;;;;4.68;2.47;;;14.80;59.00;;;;;;4935589;29;20278;-45
2022/06/30 11:42:00;;;;;;;3.92;2.00;;;14.80;59.00;;;;;;4936248;29;20255;-47
2022/06/30 11:44:33;;;;;;;3.33;2.10;;;14.80;59.00;;;;;;4935943;29;20207;-47
2022/06/30 11:47:05;;;;;;;3.22;2.20;;;14.80;59.00;;;;;;4935940;29;20675;-46
2022/06/30 11:49:43;;;;;;;5.63;2.03;;;14.80;59.00;;;;;;4935537;29;20318;-47
2022/06/30 11:52:18;;;;;;;4.07;2.40;;;14.80;59.00;;;;;;4935429;29;20206;-47
2022/06/30 11:54:52;;;;;;;3.67;1.90;;;14.70;58.90;;;;;;4935617;29;20203;-46
2022/06/30 11:57:24;;;;;;;3.60;2.20;;;14.80;59.00;;;;;;4935449;29;20211;-46
2022/06/30 11:59:56;;;;;;;4.43;2.05;;;14.80;59.00;;;;;;4935006;29;20212;-46
2022/06/30 12:02:27;;;;;;;6.03;2.20;;;14.80;59.00;;;;;;4935350;29;20214;-46
2022/06/30 12:04:59;;;;;;;4.22;2.22;;;14.80;59.00;;;;;;4935382;29;20200;-45
2022/06/30 12:07:33;;;;;;;4.63;2.33;;;14.70;58.90;;;;;;4934949;29;20199;-46
2022/06/30 12:10:04;;;;;;;6.65;2.03;;;14.70;58.90;;;;;;4935008;29;20238;-46
2022/06/30 12:12:35;;;;;;;5.03;2.15;;;14.70;58.90;;;;;;4935465;29;20211;-45
2022/06/30 12:15:08;;;;;;;6.13;2.45;;;14.70;58.90;;;;;;4935867;29;20737;-45
2022/06/30 12:17:39;;;;;;;3.17;2.08;;;14.70;58.90;;;;;;4933691;29;20199;-49
2022/06/30 12:20:12;;;;;;;7.68;2.50;;;14.70;59.00;;;;;;4935194;29;20295;-47
2022/06/30 12:22:46;;;;;;;3.65;2.22;;;14.70;58.90;;;;;;4934509;29;20207;-45
2022/06/30 12:25:18;;;;;;;3.63;2.10;;;14.70;58.90;;;;;;4934916;29;20195;-48
2022/06/30 12:27:50;;;;;;;6.10;2.63;;;14.60;58.90;;;;;;4935102;29;20582;-45
2022/06/30 12:30:23;;;;;;;5.57;2.42;;;14.60;58.90;;;;;;4934654;29;20238;-48
2022/06/30 12:32:58;;;;;;;4.82;2.25;;;14.70;59.00;;;;;;4935259;29;20200;-46
2022/06/30 12:35:30;;;;;;;5.65;2.38;;;14.70;59.00;;;;;;4934713;29;20207;-47
2022/06/30 12:38:13;;;;;;;6.25;2.88;;;14.60;58.90;;;;;;4934711;29;20203;-46
2022/06/30 12:40:44;;;;;;;5.07;2.15;;;14.70;59.00;;;;;;4934860;29;20247;-46
2022/06/30 12:43:15;;;;;;;3.85;2.03;;;14.60;58.90;;;;;;4934735;29;20761;-45
2022/06/30 12:45:55;;;;;;;5.50;2.30;;;14.60;58.90;;;;;;4933034;29;20561;-45
2022/06/30 12:48:46;;;;;;;6.13;2.72;;;14.60;58.90;;;;;;4927709;29;20212;-45
2022/06/30 12:51:18;;;;;;;5.70;2.33;;;14.60;58.90;;;;;;4934260;29;20707;-45
2022/06/30 12:54:00;;;;;;;4.15;2.20;;;14.60;58.90;;;;;;4934728;29;20208;-46
2022/06/30 12:56:32;;;;;;;3.92;2.33;;;14.60;58.90;;;;;;4934159;29;20209;-46
2022/06/30 12:59:05;;;;;;;5.15;2.30;;;14.60;58.90;;;;;;4934226;29;20199;-44
2022/06/30 13:01:38;;;;;;;4.97;2.60;;;14.60;58.90;;;;;;4934186;29;20223;-44
2022/06/30 13:04:09;;;;;;;3.53;2.22;;;14.60;59.00;;;;;;4934437;29;20251;-46
2022/06/30 13:06:41;;;;;;;4.53;2.40;;;14.50;58.90;;;;;;4933525;29;20202;-46
2022/06/30 13:09:16;;;;;;;5.15;2.70;;;14.50;59.00;;;;;;4933479;29;20199;-45
2022/06/30 13:11:50;;;;;;;5.20;2.42;;;14.50;59.00;;;;;;4933620;29;20231;-46
2022/06/30 13:14:22;;;;;;;4.75;2.17;;;14.50;59.00;;;;;;4934214;29;20195;-46
2022/06/30 13:16:53;;;;;;;5.25;2.30;;;14.50;59.00;;;;;;4934177;29;20207;-46
2022/06/30 13:19:24;;;;;;;4.30;2.53;;;14.50;59.00;;;;;;4933950;29;20204;-45
2022/06/30 13:21:55;;;;;;;6.97;2.58;;;14.50;59.00;;;;;;4934043;29;20562;-46
2022/06/30 13:24:28;;;;;;;3.50;2.30;;;14.50;59.00;;;;;;4933843;29;20222;-47
2022/06/30 13:27:02;;;;;;;4.68;2.15;;;14.50;58.90;;;;;;4933889;29;20722;-46
2022/06/30 13:29:34;;;;;;;5.63;2.10;;;14.50;59.00;;;;;;4933651;29;20687;-45
2022/06/30 13:32:05;;;;;;;4.65;2.50;;;14.50;58.90;;;;;;4934392;29;20215;-45
2022/06/30 13:34:36;;;;;;;4.45;2.30;;;14.40;58.90;;;;;;4933943;29;20199;-47
2022/06/30 13:37:07;;;;;;;4.20;2.40;;;14.40;58.90;;;;;;4933347;29;20200;-45
2022/06/30 13:39:39;;;;;;;4.63;2.22;;;14.40;58.90;;;;;;4933587;29;20204;-45
2022/06/30 13:42:10;;;;;;;3.85;2.30;;;14.40;58.90;;;;;;4914782;29;20200;-45
2022/06/30 13:44:41;;;;;;;3.35;2.20;;;14.40;58.90;;;;;;4914650;29;20204;-46
2022/06/30 13:47:14;;;;;;;4.65;2.17;;;14.40;58.90;;;;;;4924178;29;20207;-45
2022/06/30 13:49:45;;;;;;;5.65;2.42;;;14.40;58.90;;;;;;4932636;29;20230;-46
2022/06/30 13:52:16;;;;;;;4.70;2.42;;;14.40;58.90;;;;;;4932726;29;20206;-47
2022/06/30 13:54:48;;;;;;;5.00;2.13;;;14.30;58.80;;;;;;4933584;29;20199;-45
2022/06/30 13:57:19;;;;;;;3.67;2.33;;;14.40;58.90;;;;;;4933619;29;20651;-46
2022/06/30 13:59:50;;;;;;;4.13;2.42;;;14.40;58.90;;;;;;4933424;29;20222;-46
2022/06/30 14:02:21;;;;;;;3.05;1.98;;;14.30;58.90;;;;;;4933238;29;20286;-47
2022/06/30 14:04:51;;;;;;;4.75;2.33;;;14.30;58.90;;;;;;4933111;29;20235;-46
2022/06/30 14:07:22;;;;;;;3.60;1.83;;;14.30;58.80;;;;;;4932694;29;20195;-48
2022/06/30 14:09:55;;;;;;;4.85;2.38;;;14.30;58.80;;;;;;4932549;29;20647;-46
2022/06/30 14:12:25;;;;;;;3.58;2.03;;;14.30;58.80;;;;;;4933123;29;20218;-45
2022/06/30 14:14:56;;;;;;;3.90;2.50;;;14.30;58.80;;;;;;4932889;29;20207;-48
2022/06/30 14:17:27;;;;;;;3.90;2.10;;;14.30;58.80;;;;;;4933511;29;20578;-47
2022/06/30 14:19:57;;;;;;;4.47;2.15;;;14.30;58.80;;;;;;4933060;29;20223;-46
2022/06/30 14:22:28;;;;;;;5.43;2.10;;;14.30;58.80;;;;;;4932872;29;20210;-46
2022/06/30 14:25:01;;;;;;;4.15;1.75;;;14.30;58.80;;;;;;4932858;29;20211;-46
2022/06/30 14:27:33;;;;;;;3.17;1.85;;;14.30;58.80;;;;;;4932765;29;20234;-47
2022/06/30 14:30:04;;;;;;;3.58;1.90;;;14.30;58.80;;;;;;4933086;29;20227;-47
2022/06/30 14:32:34;;;;;;;4.18;2.33;;;14.20;58.80;;;;;;4933195;29;20206;-46
2022/06/30 14:35:06;;;;;;;3.67;2.08;;;14.20;58.80;;;;;;4933167;29;20671;-46
2022/06/30 14:37:36;;;;;;;4.80;1.98;;;14.20;58.80;;;;;;4932757;29;20211;-48
2022/06/30 14:40:11;;;;;;;4.28;2.35;;;14.20;58.80;;;;;;4932297;29;20238;-47